sensor_id;sensor_type;location;lat;lon;timestamp;P1;durP1;ratioP1;P2;durP2;ratioP2
19842;SDS011;10082;51.038;6.992;2023-11-21T00:02:27;15.07;;;10.68;;
19842;SDS011;10082;51.038;6.992;2023-11-21T00:04:55;14.20;;;10.52;;
19842;SDS011;10082;51.038;6.992;2023-11-21T00:07:22;12.77;;;10.88;;
19842;SDS011;10082;51.038;6.992;2023-11-21T00:09:49;13.77;;;11.15;;
19842;SDS011;10082;51.038;6.992;2023-11-21T00:12:16;12.85;;;10.93;;
19842;SDS011;10082;51.038;6.992;2023-11-21T00:14:44;12.10;;;10.60;;
19842;SDS011;10082;51.038;6.992;2023-11-21T00:17:11;12.52;;;11.15;;
19842;SDS011;10082;51.038;6.992;2023-11-21T00:19:40;14.48;;;11.45;;
19842;SDS011;10082;51.038;6.992;2023-11-21T00:22:08;13.48;;;11.38;;
19842;SDS011;10082;51.038;6.992;2023-11-21T00:24:35;11.95;;;10.73;;
19842;SDS011;10082;51.038;6.992;2023-11-21T00:27:02;13.32;;;11.23;;
19842;SDS011;10082;51.038;6.992;2023-11-21T00:29:29;13.65;;;11.35;;
19842;SDS011;10082;51.038;6.992;2023-11-21T00:31:58;14.07;;;11.73;;
19842;SDS011;10082;51.038;6.992;2023-11-21T00:34:25;13.00;;;11.68;;
19842;SDS011;10082;51.038;6.992;2023-11-21T00:36:55;11.98;;;10.55;;
19842;SDS011;10082;51.038;6.992;2023-11-21T00:39:25;12.57;;;11.35;;
19842;SDS011;10082;51.038;6.992;2023-11-21T00:41:53;13.00;;;11.60;;
19842;SDS011;10082;51.038;6.992;2023-11-21T00:44:20;13.43;;;10.70;;
19842;SDS011;10082;51.038;6.992;2023-11-21T00:46:47;13.27;;;11.48;;
19842;SDS011;10082;51.038;6.992;2023-11-21T00:49:14;13.02;;;11.63;;
19842;SDS011;10082;51.038;6.992;2023-11-21T00:51:41;14.00;;;11.93;;
19842;SDS011;10082;51.038;6.992;2023-11-21T00:54:11;15.00;;;12.52;;
19842;SDS011;10082;51.038;6.992;2023-11-21T00:56:39;15.23;;;12.07;;
19842;SDS011;10082;51.038;6.992;2023-11-21T00:59:06;13.65;;;12.23;;
19842;SDS011;10082;51.038;6.992;2023-11-21T01:01:33;14.77;;;12.57;;
19842;SDS011;10082;51.038;6.992;2023-11-21T01:04:01;15.50;;;12.07;;
19842;SDS011;10082;51.038;6.992;2023-11-21T01:06:28;16.20;;;12.43;;
19842;SDS011;10082;51.038;6.992;2023-11-21T01:08:55;18.85;;;12.98;;
19842;SDS011;10082;51.038;6.992;2023-11-21T01:11:24;16.40;;;13.35;;
19842;SDS011;10082;51.038;6.992;2023-11-21T01:13:51;15.85;;;13.60;;
19842;SDS011;10082;51.038;6.992;2023-11-21T01:16:18;15.68;;;13.10;;
19842;SDS011;10082;51.038;6.992;2023-11-21T01:18:46;15.85;;;13.45;;
19842;SDS011;10082;51.038;6.992;2023-11-21T01:21:13;16.40;;;13.60;;
19842;SDS011;10082;51.038;6.992;2023-11-21T01:23:40;17.15;;;13.63;;
19842;SDS011;10082;51.038;6.992;2023-11-21T01:26:07;15.13;;;13.52;;
19842;SDS011;10082;51.038;6.992;2023-11-21T01:28:37;15.05;;;13.45;;
19842;SDS011;10082;51.038;6.992;2023-11-21T01:31:04;18.75;;;15.30;;
19842;SDS011;10082;51.038;6.992;2023-11-21T01:33:32;20.65;;;15.77;;
19842;SDS011;10082;51.038;6.992;2023-11-21T01:36:00;15.93;;;14.02;;
19842;SDS011;10082;51.038;6.992;2023-11-21T01:38:27;15.68;;;14.00;;
19842;SDS011;10082;51.038;6.992;2023-11-21T01:40:54;15.32;;;13.57;;
19842;SDS011;10082;51.038;6.992;2023-11-21T01:43:21;17.33;;;14.18;;
19842;SDS011;10082;51.038;6.992;2023-11-21T01:45:53;17.55;;;14.70;;
19842;SDS011;10082;51.038;6.992;2023-11-21T01:48:22;17.55;;;14.93;;
19842;SDS011;10082;51.038;6.992;2023-11-21T01:50:49;16.45;;;14.48;;
19842;SDS011;10082;51.038;6.992;2023-11-21T01:53:17;18.38;;;14.35;;
19842;SDS011;10082;51.038;6.992;2023-11-21T01:55:45;17.88;;;14.35;;
19842;SDS011;10082;51.038;6.992;2023-11-21T01:58:14;16.48;;;14.35;;
19842;SDS011;10082;51.038;6.992;2023-11-21T02:00:42;16.30;;;13.85;;
19842;SDS011;10082;51.038;6.992;2023-11-21T02:03:11;15.85;;;14.10;;
19842;SDS011;10082;51.038;6.992;2023-11-21T02:05:38;16.92;;;15.13;;
19842;SDS011;10082;51.038;6.992;2023-11-21T02:08:07;16.77;;;15.05;;
19842;SDS011;10082;51.038;6.992;2023-11-21T02:10:34;21.98;;;15.05;;
19842;SDS011;10082;51.038;6.992;2023-11-21T02:13:02;15.60;;;14.00;;
19842;SDS011;10082;51.038;6.992;2023-11-21T02:15:29;15.00;;;13.52;;
19842;SDS011;10082;51.038;6.992;2023-11-21T02:17:57;16.48;;;14.40;;
19842;SDS011;10082;51.038;6.992;2023-11-21T02:20:28;15.77;;;14.07;;
19842;SDS011;10082;51.038;6.992;2023-11-21T02:22:57;16.38;;;14.35;;
19842;SDS011;10082;51.038;6.992;2023-11-21T02:25:24;16.60;;;14.15;;
19842;SDS011;10082;51.038;6.992;2023-11-21T02:27:52;15.15;;;13.55;;
19842;SDS011;10082;51.038;6.992;2023-11-21T02:30:23;17.73;;;15.18;;
19842;SDS011;10082;51.038;6.992;2023-11-21T02:32:53;15.65;;;13.95;;
19842;SDS011;10082;51.038;6.992;2023-11-21T02:35:22;17.02;;;14.15;;
19842;SDS011;10082;51.038;6.992;2023-11-21T02:37:51;17.00;;;15.07;;
19842;SDS011;10082;51.038;6.992;2023-11-21T02:40:20;17.02;;;14.68;;
19842;SDS011;10082;51.038;6.992;2023-11-21T02:42:50;17.25;;;15.00;;
19842;SDS011;10082;51.038;6.992;2023-11-21T02:45:18;15.57;;;13.93;;
19842;SDS011;10082;51.038;6.992;2023-11-21T02:47:46;15.93;;;14.30;;
19842;SDS011;10082;51.038;6.992;2023-11-21T02:50:14;16.27;;;14.57;;
19842;SDS011;10082;51.038;6.992;2023-11-21T02:52:43;19.05;;;14.82;;
19842;SDS011;10082;51.038;6.992;2023-11-21T02:55:10;19.92;;;15.80;;
19842;SDS011;10082;51.038;6.992;2023-11-21T02:57:39;16.20;;;14.10;;
19842;SDS011;10082;51.038;6.992;2023-11-21T03:00:07;18.90;;;15.18;;
19842;SDS011;10082;51.038;6.992;2023-11-21T03:02:38;16.10;;;14.50;;
19842;SDS011;10082;51.038;6.992;2023-11-21T03:05:05;14.93;;;13.35;;
19842;SDS011;10082;51.038;6.992;2023-11-21T03:07:38;15.30;;;13.32;;
19842;SDS011;10082;51.038;6.992;2023-11-21T03:10:07;14.43;;;12.93;;
19842;SDS011;10082;51.038;6.992;2023-11-21T03:12:36;15.43;;;13.82;;
19842;SDS011;10082;51.038;6.992;2023-11-21T03:15:05;15.35;;;13.85;;
19842;SDS011;10082;51.038;6.992;2023-11-21T03:17:33;15.00;;;13.50;;
19842;SDS011;10082;51.038;6.992;2023-11-21T03:20:00;17.27;;;13.40;;
19842;SDS011;10082;51.038;6.992;2023-11-21T03:22:29;17.38;;;13.38;;
19842;SDS011;10082;51.038;6.992;2023-11-21T03:24:57;16.05;;;14.43;;
19842;SDS011;10082;51.038;6.992;2023-11-21T03:27:26;16.77;;;14.13;;
19842;SDS011;10082;51.038;6.992;2023-11-21T03:29:53;15.98;;;14.25;;
19842;SDS011;10082;51.038;6.992;2023-11-21T03:32:22;16.15;;;13.63;;
19842;SDS011;10082;51.038;6.992;2023-11-21T03:34:53;16.70;;;13.65;;
19842;SDS011;10082;51.038;6.992;2023-11-21T03:37:21;18.60;;;13.65;;
19842;SDS011;10082;51.038;6.992;2023-11-21T03:39:48;15.52;;;13.27;;
19842;SDS011;10082;51.038;6.992;2023-11-21T03:42:15;17.95;;;13.88;;
19842;SDS011;10082;51.038;6.992;2023-11-21T03:44:43;14.30;;;12.82;;
19842;SDS011;10082;51.038;6.992;2023-11-21T03:47:10;16.40;;;13.13;;
19842;SDS011;10082;51.038;6.992;2023-11-21T03:49:38;17.27;;;13.48;;
19842;SDS011;10082;51.038;6.992;2023-11-21T03:52:05;16.58;;;13.05;;
19842;SDS011;10082;51.038;6.992;2023-11-21T03:54:34;16.27;;;13.77;;
19842;SDS011;10082;51.038;6.992;2023-11-21T03:57:02;16.92;;;12.48;;
19842;SDS011;10082;51.038;6.992;2023-11-21T03:59:29;15.88;;;13.45;;
19842;SDS011;10082;51.038;6.992;2023-11-21T04:01:56;15.90;;;13.57;;
19842;SDS011;10082;51.038;6.992;2023-11-21T04:04:23;16.27;;;13.00;;
19842;SDS011;10082;51.038;6.992;2023-11-21T04:06:52;17.15;;;13.15;;
19842;SDS011;10082;51.038;6.992;2023-11-21T04:09:19;14.35;;;12.77;;
19842;SDS011;10082;51.038;6.992;2023-11-21T04:11:50;14.82;;;12.48;;
19842;SDS011;10082;51.038;6.992;2023-11-21T04:14:17;15.40;;;12.63;;
19842;SDS011;10082;51.038;6.992;2023-11-21T04:16:44;13.98;;;12.52;;
19842;SDS011;10082;51.038;6.992;2023-11-21T04:19:12;18.05;;;14.00;;
19842;SDS011;10082;51.038;6.992;2023-11-21T04:21:40;15.98;;;13.35;;
19842;SDS011;10082;51.038;6.992;2023-11-21T04:24:09;15.63;;;13.15;;
19842;SDS011;10082;51.038;6.992;2023-11-21T04:26:36;16.25;;;12.88;;
19842;SDS011;10082;51.038;6.992;2023-11-21T04:29:03;14.65;;;12.50;;
19842;SDS011;10082;51.038;6.992;2023-11-21T04:31:31;15.07;;;12.52;;
19842;SDS011;10082;51.038;6.992;2023-11-21T04:33:58;15.20;;;11.93;;
19842;SDS011;10082;51.038;6.992;2023-11-21T04:36:25;17.35;;;13.30;;
19842;SDS011;10082;51.038;6.992;2023-11-21T04:38:53;15.30;;;12.43;;
19842;SDS011;10082;51.038;6.992;2023-11-21T04:41:21;14.23;;;12.75;;
19842;SDS011;10082;51.038;6.992;2023-11-21T04:43:49;15.10;;;13.48;;
19842;SDS011;10082;51.038;6.992;2023-11-21T04:46:17;14.32;;;12.40;;
19842;SDS011;10082;51.038;6.992;2023-11-21T04:48:45;14.82;;;12.93;;
19842;SDS011;10082;51.038;6.992;2023-11-21T04:51:12;16.60;;;13.13;;
19842;SDS011;10082;51.038;6.992;2023-11-21T04:53:40;14.43;;;12.93;;
19842;SDS011;10082;51.038;6.992;2023-11-21T04:56:08;14.77;;;12.05;;
19842;SDS011;10082;51.038;6.992;2023-11-21T04:58:37;14.55;;;12.00;;
19842;SDS011;10082;51.038;6.992;2023-11-21T05:01:05;15.10;;;12.23;;
19842;SDS011;10082;51.038;6.992;2023-11-21T05:03:33;16.30;;;12.73;;
19842;SDS011;10082;51.038;6.992;2023-11-21T05:06:01;17.65;;;13.73;;
19842;SDS011;10082;51.038;6.992;2023-11-21T05:08:30;16.52;;;13.50;;
19842;SDS011;10082;51.038;6.992;2023-11-21T05:10:57;14.48;;;12.70;;
19842;SDS011;10082;51.038;6.992;2023-11-21T05:13:24;14.85;;;12.88;;
19842;SDS011;10082;51.038;6.992;2023-11-21T05:15:54;15.57;;;13.27;;
19842;SDS011;10082;51.038;6.992;2023-11-21T05:18:22;21.00;;;15.30;;
19842;SDS011;10082;51.038;6.992;2023-11-21T05:20:52;16.55;;;14.32;;
19842;SDS011;10082;51.038;6.992;2023-11-21T05:23:19;20.92;;;16.48;;
19842;SDS011;10082;51.038;6.992;2023-11-21T05:25:47;21.05;;;16.17;;
19842;SDS011;10082;51.038;6.992;2023-11-21T05:28:14;27.70;;;18.58;;
19842;SDS011;10082;51.038;6.992;2023-11-21T05:30:42;23.52;;;17.63;;
19842;SDS011;10082;51.038;6.992;2023-11-21T05:33:10;22.35;;;16.95;;
19842;SDS011;10082;51.038;6.992;2023-11-21T05:35:37;24.30;;;17.38;;
19842;SDS011;10082;51.038;6.992;2023-11-21T05:38:05;25.27;;;18.38;;
19842;SDS011;10082;51.038;6.992;2023-11-21T05:40:33;24.95;;;18.90;;
19842;SDS011;10082;51.038;6.992;2023-11-21T05:43:02;23.38;;;18.52;;
19842;SDS011;10082;51.038;6.992;2023-11-21T05:45:30;25.95;;;19.75;;
19842;SDS011;10082;51.038;6.992;2023-11-21T05:47:58;24.20;;;19.40;;
19842;SDS011;10082;51.038;6.992;2023-11-21T05:50:27;25.67;;;20.30;;
19842;SDS011;10082;51.038;6.992;2023-11-21T05:52:54;26.40;;;19.80;;
19842;SDS011;10082;51.038;6.992;2023-11-21T05:55:22;24.02;;;19.35;;
19842;SDS011;10082;51.038;6.992;2023-11-21T05:57:51;27.25;;;20.48;;
19842;SDS011;10082;51.038;6.992;2023-11-21T06:00:18;25.10;;;20.63;;
19842;SDS011;10082;51.038;6.992;2023-11-21T06:02:47;28.45;;;20.38;;
19842;SDS011;10082;51.038;6.992;2023-11-21T06:05:16;24.90;;;20.25;;
19842;SDS011;10082;51.038;6.992;2023-11-21T06:07:46;27.00;;;19.85;;
19842;SDS011;10082;51.038;6.992;2023-11-21T06:10:13;27.98;;;20.52;;
19842;SDS011;10082;51.038;6.992;2023-11-21T06:12:40;24.92;;;20.20;;
19842;SDS011;10082;51.038;6.992;2023-11-21T06:15:08;27.65;;;19.92;;
19842;SDS011;10082;51.038;6.992;2023-11-21T06:17:38;27.75;;;20.10;;
19842;SDS011;10082;51.038;6.992;2023-11-21T06:20:08;25.77;;;18.92;;
19842;SDS011;10082;51.038;6.992;2023-11-21T06:22:39;26.42;;;19.83;;
19842;SDS011;10082;51.038;6.992;2023-11-21T06:25:10;24.48;;;19.38;;
19842;SDS011;10082;51.038;6.992;2023-11-21T06:27:39;25.67;;;18.52;;
19842;SDS011;10082;51.038;6.992;2023-11-21T06:30:09;25.58;;;19.85;;
19842;SDS011;10082;51.038;6.992;2023-11-21T06:32:37;26.17;;;20.42;;
19842;SDS011;10082;51.038;6.992;2023-11-21T06:35:05;27.27;;;19.85;;
19842;SDS011;10082;51.038;6.992;2023-11-21T06:37:34;28.25;;;20.77;;
19842;SDS011;10082;51.038;6.992;2023-11-21T06:40:01;26.38;;;19.83;;
19842;SDS011;10082;51.038;6.992;2023-11-21T06:42:31;25.45;;;19.52;;
19842;SDS011;10082;51.038;6.992;2023-11-21T06:44:58;26.65;;;20.13;;
19842;SDS011;10082;51.038;6.992;2023-11-21T06:47:29;24.73;;;19.42;;
19842;SDS011;10082;51.038;6.992;2023-11-21T06:49:56;27.65;;;21.02;;
19842;SDS011;10082;51.038;6.992;2023-11-21T06:52:23;29.73;;;21.48;;
19842;SDS011;10082;51.038;6.992;2023-11-21T06:54:49;27.88;;;20.88;;
19842;SDS011;10082;51.038;6.992;2023-11-21T06:57:16;30.15;;;21.13;;
19842;SDS011;10082;51.038;6.992;2023-11-21T06:59:46;29.98;;;20.48;;
19842;SDS011;10082;51.038;6.992;2023-11-21T07:02:13;28.63;;;20.17;;
19842;SDS011;10082;51.038;6.992;2023-11-21T07:04:40;28.20;;;20.05;;
19842;SDS011;10082;51.038;6.992;2023-11-21T07:07:07;33.63;;;22.15;;
19842;SDS011;10082;51.038;6.992;2023-11-21T07:09:34;31.38;;;21.70;;
19842;SDS011;10082;51.038;6.992;2023-11-21T07:12:01;31.38;;;22.15;;
19842;SDS011;10082;51.038;6.992;2023-11-21T07:14:29;30.55;;;22.30;;
19842;SDS011;10082;51.038;6.992;2023-11-21T07:16:59;28.40;;;20.90;;
19842;SDS011;10082;51.038;6.992;2023-11-21T07:19:26;34.00;;;21.98;;
19842;SDS011;10082;51.038;6.992;2023-11-21T07:21:54;30.33;;;21.80;;
19842;SDS011;10082;51.038;6.992;2023-11-21T07:24:21;29.90;;;22.70;;
19842;SDS011;10082;51.038;6.992;2023-11-21T07:26:49;31.42;;;22.58;;
19842;SDS011;10082;51.038;6.992;2023-11-21T07:29:17;35.63;;;23.58;;
19842;SDS011;10082;51.038;6.992;2023-11-21T07:31:45;32.65;;;23.30;;
19842;SDS011;10082;51.038;6.992;2023-11-21T07:34:13;32.80;;;22.20;;
19842;SDS011;10082;51.038;6.992;2023-11-21T07:36:41;37.20;;;24.40;;
19842;SDS011;10082;51.038;6.992;2023-11-21T07:39:08;31.80;;;23.63;;
19842;SDS011;10082;51.038;6.992;2023-11-21T07:41:35;32.65;;;23.08;;
19842;SDS011;10082;51.038;6.992;2023-11-21T07:44:03;35.03;;;24.52;;
19842;SDS011;10082;51.038;6.992;2023-11-21T07:46:31;32.08;;;23.73;;
19842;SDS011;10082;51.038;6.992;2023-11-21T07:48:58;32.88;;;23.70;;
19842;SDS011;10082;51.038;6.992;2023-11-21T07:51:27;33.08;;;23.95;;
19842;SDS011;10082;51.038;6.992;2023-11-21T07:53:55;35.70;;;24.85;;
19842;SDS011;10082;51.038;6.992;2023-11-21T07:56:22;34.00;;;25.55;;
19842;SDS011;10082;51.038;6.992;2023-11-21T07:58:49;34.83;;;23.35;;
19842;SDS011;10082;51.038;6.992;2023-11-21T08:01:16;30.95;;;23.15;;
19842;SDS011;10082;51.038;6.992;2023-11-21T08:03:43;33.15;;;24.08;;
19842;SDS011;10082;51.038;6.992;2023-11-21T08:06:10;34.03;;;24.08;;
19842;SDS011;10082;51.038;6.992;2023-11-21T08:08:39;35.38;;;23.90;;
19842;SDS011;10082;51.038;6.992;2023-11-21T08:11:06;34.38;;;23.95;;
19842;SDS011;10082;51.038;6.992;2023-11-21T08:13:36;34.65;;;23.15;;
19842;SDS011;10082;51.038;6.992;2023-11-21T08:16:04;34.40;;;22.98;;
19842;SDS011;10082;51.038;6.992;2023-11-21T08:18:32;33.55;;;24.02;;
19842;SDS011;10082;51.038;6.992;2023-11-21T08:21:00;33.42;;;23.38;;
19842;SDS011;10082;51.038;6.992;2023-11-21T08:23:28;32.20;;;23.88;;
19842;SDS011;10082;51.038;6.992;2023-11-21T08:25:57;35.72;;;24.40;;
19842;SDS011;10082;51.038;6.992;2023-11-21T08:28:24;34.33;;;23.33;;
19842;SDS011;10082;51.038;6.992;2023-11-21T08:30:51;32.20;;;23.25;;
19842;SDS011;10082;51.038;6.992;2023-11-21T08:33:19;39.25;;;25.52;;
19842;SDS011;10082;51.038;6.992;2023-11-21T08:35:46;40.88;;;25.15;;
19842;SDS011;10082;51.038;6.992;2023-11-21T08:38:13;41.63;;;26.17;;
19842;SDS011;10082;51.038;6.992;2023-11-21T08:40:40;38.97;;;24.73;;
19842;SDS011;10082;51.038;6.992;2023-11-21T08:43:09;41.83;;;25.60;;
19842;SDS011;10082;51.038;6.992;2023-11-21T08:45:37;42.08;;;24.95;;
19842;SDS011;10082;51.038;6.992;2023-11-21T08:48:04;39.30;;;23.30;;
19842;SDS011;10082;51.038;6.992;2023-11-21T08:50:32;41.63;;;24.25;;
19842;SDS011;10082;51.038;6.992;2023-11-21T08:52:59;39.83;;;24.67;;
19842;SDS011;10082;51.038;6.992;2023-11-21T08:55:27;38.70;;;23.63;;
19842;SDS011;10082;51.038;6.992;2023-11-21T08:57:55;44.72;;;25.38;;
19842;SDS011;10082;51.038;6.992;2023-11-21T09:00:26;37.60;;;25.58;;
19842;SDS011;10082;51.038;6.992;2023-11-21T09:02:54;39.97;;;26.75;;
19842;SDS011;10082;51.038;6.992;2023-11-21T09:05:23;42.78;;;24.90;;
19842;SDS011;10082;51.038;6.992;2023-11-21T09:07:52;37.75;;;24.02;;
19842;SDS011;10082;51.038;6.992;2023-11-21T09:10:19;42.47;;;24.63;;
19842;SDS011;10082;51.038;6.992;2023-11-21T09:12:47;40.72;;;24.48;;
19842;SDS011;10082;51.038;6.992;2023-11-21T09:15:14;41.55;;;26.13;;
19842;SDS011;10082;51.038;6.992;2023-11-21T09:17:42;38.15;;;25.50;;
19842;SDS011;10082;51.038;6.992;2023-11-21T09:20:10;35.20;;;22.40;;
19842;SDS011;10082;51.038;6.992;2023-11-21T09:22:38;38.65;;;24.30;;
19842;SDS011;10082;51.038;6.992;2023-11-21T09:25:05;36.13;;;23.25;;
19842;SDS011;10082;51.038;6.992;2023-11-21T09:27:33;41.45;;;24.70;;
19842;SDS011;10082;51.038;6.992;2023-11-21T09:30:01;36.35;;;24.20;;
19842;SDS011;10082;51.038;6.992;2023-11-21T09:32:30;35.83;;;23.63;;
19842;SDS011;10082;51.038;6.992;2023-11-21T09:34:59;44.22;;;25.25;;
19842;SDS011;10082;51.038;6.992;2023-11-21T09:37:27;37.45;;;24.38;;
19842;SDS011;10082;51.038;6.992;2023-11-21T09:39:54;37.47;;;24.55;;
19842;SDS011;10082;51.038;6.992;2023-11-21T09:42:23;40.92;;;26.40;;
19842;SDS011;10082;51.038;6.992;2023-11-21T09:44:57;39.90;;;25.90;;
19842;SDS011;10082;51.038;6.992;2023-11-21T09:47:29;38.17;;;25.27;;
19842;SDS011;10082;51.038;6.992;2023-11-21T09:49:59;42.38;;;28.27;;
19842;SDS011;10082;51.038;6.992;2023-11-21T09:52:28;36.92;;;25.13;;
19842;SDS011;10082;51.038;6.992;2023-11-21T09:54:58;38.03;;;25.38;;
19842;SDS011;10082;51.038;6.992;2023-11-21T09:57:27;37.40;;;25.75;;
19842;SDS011;10082;51.038;6.992;2023-11-21T09:59:56;38.65;;;26.08;;
19842;SDS011;10082;51.038;6.992;2023-11-21T10:02:28;34.22;;;24.92;;
19842;SDS011;10082;51.038;6.992;2023-11-21T10:04:56;38.33;;;24.55;;
19842;SDS011;10082;51.038;6.992;2023-11-21T10:07:25;32.55;;;23.77;;
19842;SDS011;10082;51.038;6.992;2023-11-21T10:09:53;37.00;;;25.48;;
19842;SDS011;10082;51.038;6.992;2023-11-21T10:12:22;35.97;;;25.00;;
19842;SDS011;10082;51.038;6.992;2023-11-21T10:14:51;37.40;;;25.13;;
19842;SDS011;10082;51.038;6.992;2023-11-21T10:17:19;38.13;;;25.73;;
19842;SDS011;10082;51.038;6.992;2023-11-21T10:19:47;38.17;;;25.20;;
19842;SDS011;10082;51.038;6.992;2023-11-21T10:22:16;38.08;;;26.73;;
19842;SDS011;10082;51.038;6.992;2023-11-21T10:24:46;36.95;;;24.75;;
19842;SDS011;10082;51.038;6.992;2023-11-21T10:27:14;35.92;;;24.35;;
19842;SDS011;10082;51.038;6.992;2023-11-21T10:29:41;35.00;;;24.08;;
19842;SDS011;10082;51.038;6.992;2023-11-21T10:32:08;33.75;;;23.48;;
19842;SDS011;10082;51.038;6.992;2023-11-21T10:34:38;35.58;;;23.02;;
19842;SDS011;10082;51.038;6.992;2023-11-21T10:37:11;30.20;;;21.27;;
19842;SDS011;10082;51.038;6.992;2023-11-21T10:39:39;35.60;;;24.20;;
19842;SDS011;10082;51.038;6.992;2023-11-21T10:42:10;31.00;;;23.05;;
19842;SDS011;10082;51.038;6.992;2023-11-21T10:44:38;34.15;;;23.88;;
19842;SDS011;10082;51.038;6.992;2023-11-21T10:47:10;37.03;;;23.05;;
19842;SDS011;10082;51.038;6.992;2023-11-21T10:49:37;33.22;;;21.83;;
19842;SDS011;10082;51.038;6.992;2023-11-21T10:52:06;32.30;;;22.80;;
19842;SDS011;10082;51.038;6.992;2023-11-21T10:54:37;31.98;;;21.77;;
19842;SDS011;10082;51.038;6.992;2023-11-21T10:57:04;34.80;;;22.77;;
19842;SDS011;10082;51.038;6.992;2023-11-21T10:59:34;31.65;;;23.02;;
19842;SDS011;10082;51.038;6.992;2023-11-21T11:02:06;37.08;;;24.33;;
19842;SDS011;10082;51.038;6.992;2023-11-21T11:04:47;35.17;;;23.23;;
19842;SDS011;10082;51.038;6.992;2023-11-21T11:07:15;34.88;;;23.13;;
19842;SDS011;10082;51.038;6.992;2023-11-21T11:09:43;34.30;;;23.35;;
19842;SDS011;10082;51.038;6.992;2023-11-21T11:12:15;35.28;;;24.15;;
19842;SDS011;10082;51.038;6.992;2023-11-21T11:14:46;37.40;;;23.45;;
19842;SDS011;10082;51.038;6.992;2023-11-21T11:17:15;36.88;;;25.65;;
19842;SDS011;10082;51.038;6.992;2023-11-21T11:19:44;38.85;;;24.50;;
19842;SDS011;10082;51.038;6.992;2023-11-21T11:22:16;41.80;;;26.65;;
19842;SDS011;10082;51.038;6.992;2023-11-21T11:27:52;36.15;;;23.85;;
19842;SDS011;10082;51.038;6.992;2023-11-21T11:30:30;34.78;;;23.23;;
19842;SDS011;10082;51.038;6.992;2023-11-21T11:33:09;36.28;;;23.48;;
19842;SDS011;10082;51.038;6.992;2023-11-21T11:35:52;43.28;;;24.15;;
19842;SDS011;10082;51.038;6.992;2023-11-21T11:38:25;38.40;;;24.00;;
19842;SDS011;10082;51.038;6.992;2023-11-21T11:40:57;41.20;;;23.95;;
19842;SDS011;10082;51.038;6.992;2023-11-21T11:43:29;36.95;;;23.30;;
19842;SDS011;10082;51.038;6.992;2023-11-21T11:45:59;35.40;;;23.27;;
19842;SDS011;10082;51.038;6.992;2023-11-21T11:48:30;35.33;;;23.10;;
19842;SDS011;10082;51.038;6.992;2023-11-21T11:51:05;36.10;;;23.45;;
19842;SDS011;10082;51.038;6.992;2023-11-21T11:53:40;35.00;;;23.20;;
19842;SDS011;10082;51.038;6.992;2023-11-21T11:56:24;33.25;;;22.48;;
19842;SDS011;10082;51.038;6.992;2023-11-21T11:58:54;31.52;;;21.85;;
19842;SDS011;10082;51.038;6.992;2023-11-21T12:01:24;33.10;;;22.45;;
19842;SDS011;10082;51.038;6.992;2023-11-21T12:06:59;37.38;;;23.40;;
19842;SDS011;10082;51.038;6.992;2023-11-21T12:09:28;36.10;;;23.35;;
19842;SDS011;10082;51.038;6.992;2023-11-21T12:11:58;37.00;;;24.02;;
19842;SDS011;10082;51.038;6.992;2023-11-21T12:14:27;40.15;;;24.88;;
19842;SDS011;10082;51.038;6.992;2023-11-21T12:16:56;38.60;;;24.80;;
19842;SDS011;10082;51.038;6.992;2023-11-21T12:19:25;36.60;;;21.42;;
19842;SDS011;10082;51.038;6.992;2023-11-21T12:21:53;42.10;;;23.85;;
19842;SDS011;10082;51.038;6.992;2023-11-21T12:24:21;33.97;;;21.75;;
19842;SDS011;10082;51.038;6.992;2023-11-21T12:26:49;33.97;;;22.92;;
19842;SDS011;10082;51.038;6.992;2023-11-21T12:29:17;36.55;;;23.33;;
19842;SDS011;10082;51.038;6.992;2023-11-21T12:31:44;34.72;;;22.20;;
19842;SDS011;10082;51.038;6.992;2023-11-21T12:34:14;39.60;;;23.83;;
19842;SDS011;10082;51.038;6.992;2023-11-21T12:36:41;37.75;;;23.13;;
19842;SDS011;10082;51.038;6.992;2023-11-21T12:39:09;42.05;;;24.27;;
19842;SDS011;10082;51.038;6.992;2023-11-21T12:41:36;35.10;;;24.20;;
19842;SDS011;10082;51.038;6.992;2023-11-21T12:44:08;41.78;;;23.52;;
19842;SDS011;10082;51.038;6.992;2023-11-21T12:46:40;39.80;;;25.15;;
19842;SDS011;10082;51.038;6.992;2023-11-21T12:49:10;40.95;;;25.48;;
19842;SDS011;10082;51.038;6.992;2023-11-21T12:51:44;38.30;;;23.27;;
19842;SDS011;10082;51.038;6.992;2023-11-21T12:54:12;37.00;;;21.75;;
19842;SDS011;10082;51.038;6.992;2023-11-21T12:56:40;36.05;;;22.15;;
19842;SDS011;10082;51.038;6.992;2023-11-21T12:59:08;32.22;;;21.38;;
19842;SDS011;10082;51.038;6.992;2023-11-21T13:01:41;33.40;;;21.70;;
19842;SDS011;10082;51.038;6.992;2023-11-21T13:04:08;34.22;;;21.20;;
19842;SDS011;10082;51.038;6.992;2023-11-21T13:06:37;36.45;;;22.10;;
19842;SDS011;10082;51.038;6.992;2023-11-21T13:09:11;33.15;;;21.42;;
19842;SDS011;10082;51.038;6.992;2023-11-21T13:11:46;33.38;;;22.48;;
19842;SDS011;10082;51.038;6.992;2023-11-21T13:14:13;34.70;;;23.05;;
19842;SDS011;10082;51.038;6.992;2023-11-21T13:16:44;36.05;;;23.02;;
19842;SDS011;10082;51.038;6.992;2023-11-21T13:19:12;36.38;;;23.00;;
19842;SDS011;10082;51.038;6.992;2023-11-21T13:21:40;33.03;;;23.08;;
19842;SDS011;10082;51.038;6.992;2023-11-21T13:24:09;36.28;;;22.73;;
19842;SDS011;10082;51.038;6.992;2023-11-21T13:26:39;35.40;;;22.25;;
19842;SDS011;10082;51.038;6.992;2023-11-21T13:29:08;33.00;;;21.38;;
19842;SDS011;10082;51.038;6.992;2023-11-21T13:31:38;30.15;;;18.88;;
19842;SDS011;10082;51.038;6.992;2023-11-21T13:34:11;33.67;;;20.52;;
19842;SDS011;10082;51.038;6.992;2023-11-21T13:36:40;28.02;;;18.50;;
19842;SDS011;10082;51.038;6.992;2023-11-21T13:39:08;28.83;;;18.67;;
19842;SDS011;10082;51.038;6.992;2023-11-21T13:41:43;29.42;;;19.15;;
19842;SDS011;10082;51.038;6.992;2023-11-21T13:44:20;32.25;;;20.02;;
19842;SDS011;10082;51.038;6.992;2023-11-21T13:46:52;30.35;;;19.23;;
19842;SDS011;10082;51.038;6.992;2023-11-21T13:49:26;31.73;;;20.17;;
19842;SDS011;10082;51.038;6.992;2023-11-21T13:51:57;33.20;;;19.75;;
19842;SDS011;10082;51.038;6.992;2023-11-21T13:54:26;32.72;;;20.92;;
19842;SDS011;10082;51.038;6.992;2023-11-21T13:56:55;29.92;;;19.35;;
19842;SDS011;10082;51.038;6.992;2023-11-21T13:59:22;33.90;;;20.90;;
19842;SDS011;10082;51.038;6.992;2023-11-21T14:01:51;34.33;;;20.30;;
19842;SDS011;10082;51.038;6.992;2023-11-21T14:04:23;33.30;;;20.65;;
19842;SDS011;10082;51.038;6.992;2023-11-21T14:07:18;32.53;;;20.55;;
19842;SDS011;10082;51.038;6.992;2023-11-21T14:09:51;36.88;;;22.42;;
19842;SDS011;10082;51.038;6.992;2023-11-21T14:12:23;34.30;;;21.77;;
19842;SDS011;10082;51.038;6.992;2023-11-21T14:14:51;35.00;;;23.77;;
19842;SDS011;10082;51.038;6.992;2023-11-21T14:17:20;34.80;;;22.73;;
19842;SDS011;10082;51.038;6.992;2023-11-21T14:19:50;37.80;;;24.60;;
19842;SDS011;10082;51.038;6.992;2023-11-21T14:22:18;38.65;;;25.17;;
19842;SDS011;10082;51.038;6.992;2023-11-21T14:24:46;39.42;;;24.20;;
19842;SDS011;10082;51.038;6.992;2023-11-21T14:27:15;40.05;;;25.13;;
19842;SDS011;10082;51.038;6.992;2023-11-21T14:29:44;39.22;;;23.55;;
19842;SDS011;10082;51.038;6.992;2023-11-21T14:32:13;38.70;;;24.02;;
19842;SDS011;10082;51.038;6.992;2023-11-21T14:34:41;39.28;;;22.77;;
19842;SDS011;10082;51.038;6.992;2023-11-21T14:37:12;37.85;;;23.00;;